sensor_id;sensor_type;location;lat;lon;timestamp;temperature;humidity
67868;SHT31;54672;46.096;14.470;2023-08-12T00:01:05;16.28;96.69
67868;SHT31;54672;46.096;14.470;2023-08-12T00:03:30;16.22;96.57
67868;SHT31;54672;46.096;14.470;2023-08-12T00:05:57;16.28;96.87
67868;SHT31;54672;46.096;14.470;2023-08-12T00:08:25;16.31;96.59
67868;SHT31;54672;46.096;14.470;2023-08-12T00:10:51;16.20;96.43
67868;SHT31;54672;46.096;14.470;2023-08-12T00:13:16;16.22;97.06
67868;SHT31;54672;46.096;14.470;2023-08-12T00:15:43;16.25;96.88
67868;SHT31;54672;46.096;14.470;2023-08-12T00:18:09;16.25;96.75
67868;SHT31;54672;46.096;14.470;2023-08-12T00:20:35;16.26;96.89
67868;SHT31;54672;46.096;14.470;2023-08-12T00:23:00;16.22;96.97
67868;SHT31;54672;46.096;14.470;2023-08-12T00:25:26;16.14;97.00
67868;SHT31;54672;46.096;14.470;2023-08-12T00:27:52;16.10;97.21
67868;SHT31;54672;46.096;14.470;2023-08-12T00:30:17;16.01;97.34
67868;SHT31;54672;46.096;14.470;2023-08-12T00:32:43;16.00;97.52
67868;SHT31;54672;46.096;14.470;2023-08-12T00:35:08;15.93;97.68
67868;SHT31;54672;46.096;14.470;2023-08-12T00:37:34;15.89;97.82
67868;SHT31;54672;46.096;14.470;2023-08-12T00:39:59;15.87;98.40
67868;SHT31;54672;46.096;14.470;2023-08-12T00:42:25;15.80;98.43
67868;SHT31;54672;46.096;14.470;2023-08-12T00:44:50;15.79;98.70
67868;SHT31;54672;46.096;14.470;2023-08-12T00:47:16;15.73;98.69
67868;SHT31;54672;46.096;14.470;2023-08-12T00:49:42;15.71;98.78
67868;SHT31;54672;46.096;14.470;2023-08-12T00:52:12;15.70;99.10
67868;SHT31;54672;46.096;14.470;2023-08-12T00:54:38;15.70;99.40
67868;SHT31;54672;46.096;14.470;2023-08-12T00:57:04;15.70;99.20
67868;SHT31;54672;46.096;14.470;2023-08-12T00:59:31;15.67;99.16
67868;SHT31;54672;46.096;14.470;2023-08-12T01:01:57;15.63;99.22
67868;SHT31;54672;46.096;14.470;2023-08-12T01:04:22;15.59;99.31
67868;SHT31;54672;46.096;14.470;2023-08-12T01:06:48;15.52;99.36
67868;SHT31;54672;46.096;14.470;2023-08-12T01:09:13;15.47;99.54
67868;SHT31;54672;46.096;14.470;2023-08-12T01:11:47;15.40;99.88
67868;SHT31;54672;46.096;14.470;2023-08-12T01:14:21;15.38;99.85
67868;SHT31;54672;46.096;14.470;2023-08-12T01:16:51;15.31;99.92
67868;SHT31;54672;46.096;14.470;2023-08-12T01:19:36;15.28;99.99
67868;SHT31;54672;46.096;14.470;2023-08-12T01:22:03;15.26;99.99
67868;SHT31;54672;46.096;14.470;2023-08-12T01:24:37;15.22;99.99
67868;SHT31;54672;46.096;14.470;2023-08-12T01:27:04;15.16;99.99
67868;SHT31;54672;46.096;14.470;2023-08-12T01:29:31;15.08;99.99
67868;SHT31;54672;46.096;14.470;2023-08-12T01:32:11;15.04;99.99
67868;SHT31;54672;46.096;14.470;2023-08-12T01:34:47;15.08;99.99
67868;SHT31;54672;46.096;14.470;2023-08-12T01:37:19;15.12;99.99
67868;SHT31;54672;46.096;14.470;2023-08-12T01:39:49;15.09;99.99
67868;SHT31;54672;46.096;14.470;2023-08-12T01:42:17;15.11;99.99
67868;SHT31;54672;46.096;14.470;2023-08-12T01:44:43;15.11;99.99
67868;SHT31;54672;46.096;14.470;2023-08-12T01:47:09;15.09;99.99
67868;SHT31;54672;46.096;14.470;2023-08-12T01:49:34;15.09;99.99
67868;SHT31;54672;46.096;14.470;2023-08-12T01:52:00;15.08;99.99
67868;SHT31;54672;46.096;14.470;2023-08-12T01:54:25;15.04;99.99
67868;SHT31;54672;46.096;14.470;2023-08-12T01:56:51;15.06;99.99
67868;SHT31;54672;46.096;14.470;2023-08-12T01:59:16;15.11;99.99
67868;SHT31;54672;46.096;14.470;2023-08-12T02:01:42;15.09;99.99
67868;SHT31;54672;46.096;14.470;2023-08-12T02:04:07;15.08;99.99
67868;SHT31;54672;46.096;14.470;2023-08-12T02:06:32;14.99;99.99
67868;SHT31;54672;46.096;14.470;2023-08-12T02:08:58;14.96;99.99
67868;SHT31;54672;46.096;14.470;2023-08-12T02:11:23;14.95;99.99
67868;SHT31;54672;46.096;14.470;2023-08-12T02:13:49;14.92;99.99
67868;SHT31;54672;46.096;14.470;2023-08-12T02:16:14;15.01;99.99
67868;SHT31;54672;46.096;14.470;2023-08-12T02:18:40;15.02;99.99
67868;SHT31;54672;46.096;14.470;2023-08-12T02:21:05;14.98;99.90
67868;SHT31;54672;46.096;14.470;2023-08-12T02:23:30;14.89;99.99
67868;SHT31;54672;46.096;14.470;2023-08-12T02:25:56;14.84;99.99
67868;SHT31;54672;46.096;14.470;2023-08-12T02:28:21;14.73;99.99
67868;SHT31;54672;46.096;14.470;2023-08-12T02:30:47;14.70;99.99
67868;SHT31;54672;46.096;14.470;2023-08-12T02:33:12;14.77;99.99
67868;SHT31;54672;46.096;14.470;2023-08-12T02:35:38;14.71;99.99
67868;SHT31;54672;46.096;14.470;2023-08-12T02:38:03;14.64;99.99
67868;SHT31;54672;46.096;14.470;2023-08-12T02:40:29;14.63;99.99
67868;SHT31;54672;46.096;14.470;2023-08-12T02:42:54;14.57;99.99
67868;SHT31;54672;46.096;14.470;2023-08-12T02:45:20;14.48;99.99
67868;SHT31;54672;46.096;14.470;2023-08-12T02:47:45;14.46;99.99
67868;SHT31;54672;46.096;14.470;2023-08-12T02:50:10;14.57;99.99
67868;SHT31;54672;46.096;14.470;2023-08-12T02:52:36;14.47;99.99
67868;SHT31;54672;46.096;14.470;2023-08-12T02:55:01;14.36;99.99
67868;SHT31;54672;46.096;14.470;2023-08-12T02:57:27;14.36;99.99
67868;SHT31;54672;46.096;14.470;2023-08-12T02:59:52;14.36;99.99
67868;SHT31;54672;46.096;14.470;2023-08-12T03:02:18;14.37;99.99
67868;SHT31;54672;46.096;14.470;2023-08-12T03:04:43;14.37;99.99
67868;SHT31;54672;46.096;14.470;2023-08-12T03:07:09;14.47;99.99
67868;SHT31;54672;46.096;14.470;2023-08-12T03:09:35;14.41;99.99
67868;SHT31;54672;46.096;14.470;2023-08-12T03:12:00;14.33;99.99
67868;SHT31;54672;46.096;14.470;2023-08-12T03:14:28;14.29;99.99
67868;SHT31;54672;46.096;14.470;2023-08-12T03:16:54;14.27;99.99
67868;SHT31;54672;46.096;14.470;2023-08-12T03:19:20;14.19;99.99
67868;SHT31;54672;46.096;14.470;2023-08-12T03:21:45;14.17;99.99
67868;SHT31;54672;46.096;14.470;2023-08-12T03:24:11;14.13;99.99
67868;SHT31;54672;46.096;14.470;2023-08-12T03:26:36;14.12;99.99
67868;SHT31;54672;46.096;14.470;2023-08-12T03:29:02;14.09;99.99
67868;SHT31;54672;46.096;14.470;2023-08-12T03:31:27;14.09;99.99
67868;SHT31;54672;46.096;14.470;2023-08-12T03:33:53;14.10;99.99
67868;SHT31;54672;46.096;14.470;2023-08-12T03:36:18;14.17;99.99
67868;SHT31;54672;46.096;14.470;2023-08-12T03:38:44;14.16;99.99
67868;SHT31;54672;46.096;14.470;2023-08-12T03:41:09;14.13;99.99
67868;SHT31;54672;46.096;14.470;2023-08-12T03:43:35;14.08;99.99
67868;SHT31;54672;46.096;14.470;2023-08-12T03:46:01;14.12;99.99
67868;SHT31;54672;46.096;14.470;2023-08-12T03:48:27;14.08;99.99
67868;SHT31;54672;46.096;14.470;2023-08-12T03:50:52;14.05;99.99
67868;SHT31;54672;46.096;14.470;2023-08-12T03:53:18;14.10;99.99
67868;SHT31;54672;46.096;14.470;2023-08-12T03:55:43;14.10;99.99
67868;SHT31;54672;46.096;14.470;2023-08-12T03:58:08;14.13;99.99
67868;SHT31;54672;46.096;14.470;2023-08-12T04:00:34;14.16;99.99
67868;SHT31;54672;46.096;14.470;2023-08-12T04:02:59;14.16;99.99
67868;SHT31;54672;46.096;14.470;2023-08-12T04:05:25;14.15;99.99
67868;SHT31;54672;46.096;14.470;2023-08-12T04:07:51;14.17;99.99
67868;SHT31;54672;46.096;14.470;2023-08-12T04:10:16;14.15;99.99
67868;SHT31;54672;46.096;14.470;2023-08-12T04:12:41;14.15;99.99
67868;SHT31;54672;46.096;14.470;2023-08-12T04:15:08;14.15;99.99
67868;SHT31;54672;46.096;14.470;2023-08-12T04:17:33;14.10;99.99
67868;SHT31;54672;46.096;14.470;2023-08-12T04:19:59;14.10;99.99
67868;SHT31;54672;46.096;14.470;2023-08-12T04:22:24;14.13;99.99
67868;SHT31;54672;46.096;14.470;2023-08-12T04:24:50;14.17;99.99
67868;SHT31;54672;46.096;14.470;2023-08-12T04:27:15;14.22;99.99
67868;SHT31;54672;46.096;14.470;2023-08-12T04:29:45;14.23;99.99
67868;SHT31;54672;46.096;14.470;2023-08-12T04:32:11;14.24;99.99
67868;SHT31;54672;46.096;14.470;2023-08-12T04:34:36;14.23;99.99
67868;SHT31;54672;46.096;14.470;2023-08-12T04:37:02;14.20;99.99
67868;SHT31;54672;46.096;14.470;2023-08-12T04:39:27;14.26;99.99
67868;SHT31;54672;46.096;14.470;2023-08-12T04:41:53;14.32;99.99
67868;SHT31;54672;46.096;14.470;2023-08-12T04:44:18;14.33;99.99
67868;SHT31;54672;46.096;14.470;2023-08-12T04:46:44;14.38;99.99
67868;SHT31;54672;46.096;14.470;2023-08-12T04:49:09;14.46;99.99
67868;SHT31;54672;46.096;14.470;2023-08-12T04:51:35;14.57;99.99
67868;SHT31;54672;46.096;14.470;2023-08-12T04:54:00;14.65;99.99
67868;SHT31;54672;46.096;14.470;2023-08-12T04:56:27;14.70;99.99
67868;SHT31;54672;46.096;14.470;2023-08-12T04:58:55;14.77;99.99
67868;SHT31;54672;46.096;14.470;2023-08-12T05:01:21;14.73;99.99
67868;SHT31;54672;46.096;14.470;2023-08-12T05:03:47;14.83;99.99
67868;SHT31;54672;46.096;14.470;2023-08-12T05:06:12;14.84;99.99
67868;SHT31;54672;46.096;14.470;2023-08-12T05:08:38;14.83;99.99
67868;SHT31;54672;46.096;14.470;2023-08-12T05:11:03;14.91;99.99
67868;SHT31;54672;46.096;14.470;2023-08-12T05:13:29;15.11;99.99
67868;SHT31;54672;46.096;14.470;2023-08-12T05:15:55;15.31;99.99
67868;SHT31;54672;46.096;14.470;2023-08-12T05:18:22;15.15;99.99
67868;SHT31;54672;46.096;14.470;2023-08-12T05:20:52;15.11;99.99
67868;SHT31;54672;46.096;14.470;2023-08-12T05:23:17;15.19;99.99
67868;SHT31;54672;46.096;14.470;2023-08-12T05:25:43;15.22;99.99
67868;SHT31;54672;46.096;14.470;2023-08-12T05:28:08;15.26;99.99
67868;SHT31;54672;46.096;14.470;2023-08-12T05:30:34;15.35;99.99
67868;SHT31;54672;46.096;14.470;2023-08-12T05:33:00;15.55;99.99
67868;SHT31;54672;46.096;14.470;2023-08-12T05:35:26;15.82;99.99
67868;SHT31;54672;46.096;14.470;2023-08-12T05:37:51;15.96;99.99
67868;SHT31;54672;46.096;14.470;2023-08-12T05:40:16;16.07;99.32
67868;SHT31;54672;46.096;14.470;2023-08-12T05:42:42;16.13;98.45
67868;SHT31;54672;46.096;14.470;2023-08-12T05:45:08;16.07;98.29
67868;SHT31;54672;46.096;14.470;2023-08-12T05:47:33;15.77;99.36
67868;SHT31;54672;46.096;14.470;2023-08-12T05:49:59;15.55;99.60
67868;SHT31;54672;46.096;14.470;2023-08-12T05:52:24;15.35;99.99
67868;SHT31;54672;46.096;14.470;2023-08-12T05:54:50;15.47;99.99
67868;SHT31;54672;46.096;14.470;2023-08-12T05:57:15;15.63;99.84
67868;SHT31;54672;46.096;14.470;2023-08-12T05:59:40;15.87;99.02
67868;SHT31;54672;46.096;14.470;2023-08-12T06:02:06;15.97;99.27
67868;SHT31;54672;46.096;14.470;2023-08-12T06:04:31;16.28;98.37
67868;SHT31;54672;46.096;14.470;2023-08-12T06:06:57;16.41;97.63
67868;SHT31;54672;46.096;14.470;2023-08-12T06:09:22;16.75;96.65
67868;SHT31;54672;46.096;14.470;2023-08-12T06:11:48;16.72;95.98
67868;SHT31;54672;46.096;14.470;2023-08-12T06:14:13;16.69;96.41
67868;SHT31;54672;46.096;14.470;2023-08-12T06:16:39;16.86;96.08
67868;SHT31;54672;46.096;14.470;2023-08-12T06:19:04;17.17;94.76
67868;SHT31;54672;46.096;14.470;2023-08-12T06:21:30;16.79;95.61
67868;SHT31;54672;46.096;14.470;2023-08-12T06:23:55;16.48;97.44
67868;SHT31;54672;46.096;14.470;2023-08-12T06:26:21;16.54;97.21
67868;SHT31;54672;46.096;14.470;2023-08-12T06:28:47;16.77;96.45
67868;SHT31;54672;46.096;14.470;2023-08-12T06:31:12;16.65;96.35
67868;SHT31;54672;46.096;14.470;2023-08-12T06:33:38;16.65;97.17
67868;SHT31;54672;46.096;14.470;2023-08-12T06:36:03;17.13;96.18
67868;SHT31;54672;46.096;14.470;2023-08-12T06:38:29;17.65;94.11
67868;SHT31;54672;46.096;14.470;2023-08-12T06:40:55;18.15;92.28
67868;SHT31;54672;46.096;14.470;2023-08-12T06:43:20;18.46;90.69
67868;SHT31;54672;46.096;14.470;2023-08-12T06:45:46;17.41;93.87
67868;SHT31;54672;46.096;14.470;2023-08-12T06:48:11;17.68;93.04
67868;SHT31;54672;46.096;14.470;2023-08-12T06:50:37;18.47;90.63
67868;SHT31;54672;46.096;14.470;2023-08-12T06:53:02;19.26;87.60
67868;SHT31;54672;46.096;14.470;2023-08-12T06:55:28;19.93;85.53
67868;SHT31;54672;46.096;14.470;2023-08-12T06:57:53;20.38;83.12
67868;SHT31;54672;46.096;14.470;2023-08-12T07:00:19;20.85;82.19
67868;SHT31;54672;46.096;14.470;2023-08-12T07:02:44;19.77;84.07
67868;SHT31;54672;46.096;14.470;2023-08-12T07:05:10;19.12;88.23
67868;SHT31;54672;46.096;14.470;2023-08-12T07:07:35;19.18;87.26
67868;SHT31;54672;46.096;14.470;2023-08-12T07:10:01;18.97;87.90
67868;SHT31;54672;46.096;14.470;2023-08-12T07:12:26;20.88;81.90
67868;SHT31;54672;46.096;14.470;2023-08-12T07:14:52;21.84;79.38
67868;SHT31;54672;46.096;14.470;2023-08-12T07:17:17;22.83;76.00
67868;SHT31;54672;46.096;14.470;2023-08-12T07:19:43;23.11;75.62
67868;SHT31;54672;46.096;14.470;2023-08-12T07:22:08;24.14;72.28
67868;SHT31;54672;46.096;14.470;2023-08-12T07:24:34;25.29;67.76
67868;SHT31;54672;46.096;14.470;2023-08-12T07:26:59;25.86;66.01
67868;SHT31;54672;46.096;14.470;2023-08-12T07:29:25;26.24;65.07
67868;SHT31;54672;46.096;14.470;2023-08-12T07:31:52;24.12;71.05
67868;SHT31;54672;46.096;14.470;2023-08-12T07:34:17;25.46;68.74
67868;SHT31;54672;46.096;14.470;2023-08-12T07:36:43;26.13;64.97
67868;SHT31;54672;46.096;14.470;2023-08-12T07:39:08;26.14;64.78
67868;SHT31;54672;46.096;14.470;2023-08-12T07:41:34;24.99;67.78
67868;SHT31;54672;46.096;14.470;2023-08-12T07:43:59;23.63;71.84
67868;SHT31;54672;46.096;14.470;2023-08-12T07:46:25;24.23;70.35
67868;SHT31;54672;46.096;14.470;2023-08-12T07:48:50;25.86;66.13
67868;SHT31;54672;46.096;14.470;2023-08-12T07:51:16;26.31;63.85
67868;SHT31;54672;46.096;14.470;2023-08-12T07:53:41;26.66;63.35
67868;SHT31;54672;46.096;14.470;2023-08-12T07:56:06;26.49;64.23
67868;SHT31;54672;46.096;14.470;2023-08-12T07:58:32;26.44;64.23
67868;SHT31;54672;46.096;14.470;2023-08-12T08:00:57;26.72;63.20
67868;SHT31;54672;46.096;14.470;2023-08-12T08:03:23;26.51;63.94
67868;SHT31;54672;46.096;14.470;2023-08-12T08:05:48;24.56;68.46
67868;SHT31;54672;46.096;14.470;2023-08-12T08:08:14;24.82;69.00
67868;SHT31;54672;46.096;14.470;2023-08-12T08:10:40;25.01;67.37
67868;SHT31;54672;46.096;14.470;2023-08-12T08:13:05;24.84;67.72
67868;SHT31;54672;46.096;14.470;2023-08-12T08:15:31;25.29;67.06
67868;SHT31;54672;46.096;14.470;2023-08-12T08:17:57;24.46;68.43
67868;SHT31;54672;46.096;14.470;2023-08-12T08:20:22;25.15;67.50
67868;SHT31;54672;46.096;14.470;2023-08-12T08:22:48;24.60;67.20
67868;SHT31;54672;46.096;14.470;2023-08-12T08:25:13;25.79;65.04
67868;SHT31;54672;46.096;14.470;2023-08-12T08:27:39;25.22;64.70
67868;SHT31;54672;46.096;14.470;2023-08-12T08:30:06;25.71;65.08
67868;SHT31;54672;46.096;14.470;2023-08-12T08:32:33;26.28;62.85
67868;SHT31;54672;46.096;14.470;2023-08-12T08:34:58;25.25;64.04
67868;SHT31;54672;46.096;14.470;2023-08-12T08:37:24;25.42;64.25
67868;SHT31;54672;46.096;14.470;2023-08-12T08:39:50;25.35;62.05
67868;SHT31;54672;46.096;14.470;2023-08-12T08:42:15;26.34;61.09
67868;SHT31;54672;46.096;14.470;2023-08-12T08:44:45;25.19;66.19
67868;SHT31;54672;46.096;14.470;2023-08-12T08:47:13;25.45;66.44
67868;SHT31;54672;46.096;14.470;2023-08-12T08:49:41;26.48;60.78
67868;SHT31;54672;46.096;14.470;2023-08-12T08:52:06;26.28;60.59
67868;SHT31;54672;46.096;14.470;2023-08-12T08:54:34;26.80;60.11
67868;SHT31;54672;46.096;14.470;2023-08-12T08:56:59;27.38;59.03
67868;SHT31;54672;46.096;14.470;2023-08-12T08:59:25;27.80;57.09
67868;SHT31;54672;46.096;14.470;2023-08-12T09:01:51;27.87;56.47
67868;SHT31;54672;46.096;14.470;2023-08-12T09:04:17;28.19;56.31
67868;SHT31;54672;46.096;14.470;2023-08-12T09:06:44;28.33;57.17
67868;SHT31;54672;46.096;14.470;2023-08-12T09:09:12;28.56;56.38
67868;SHT31;54672;46.096;14.470;2023-08-12T09:11:39;28.94;54.09
67868;SHT31;54672;46.096;14.470;2023-08-12T09:14:06;29.29;53.21
67868;SHT31;54672;46.096;14.470;2023-08-12T09:16:32;29.10;52.63
67868;SHT31;54672;46.096;14.470;2023-08-12T09:18:58;29.63;50.17
67868;SHT31;54672;46.096;14.470;2023-08-12T09:21:23;29.36;51.47
67868;SHT31;54672;46.096;14.470;2023-08-12T09:23:49;29.36;51.32
67868;SHT31;54672;46.096;14.470;2023-08-12T09:26:19;28.49;52.17
67868;SHT31;54672;46.096;14.470;2023-08-12T09:28:45;27.27;54.73
67868;SHT31;54672;46.096;14.470;2023-08-12T09:31:24;26.44;54.64
67868;SHT31;54672;46.096;14.470;2023-08-12T09:33:51;25.97;55.18
67868;SHT31;54672;46.096;14.470;2023-08-12T09:36:17;25.60;57.31
67868;SHT31;54672;46.096;14.470;2023-08-12T09:38:43;25.26;57.05
67868;SHT31;54672;46.096;14.470;2023-08-12T09:41:09;25.16;57.21
67868;SHT31;54672;46.096;14.470;2023-08-12T09:43:35;25.08;56.33
67868;SHT31;54672;46.096;14.470;2023-08-12T09:46:05;25.07;54.46
67868;SHT31;54672;46.096;14.470;2023-08-12T09:48:30;25.01;53.93
67868;SHT31;54672;46.096;14.470;2023-08-12T09:50:56;24.63;57.78
67868;SHT31;54672;46.096;14.470;2023-08-12T09:53:23;24.98;58.67
67868;SHT31;54672;46.096;14.470;2023-08-12T09:55:51;25.20;56.03
67868;SHT31;54672;46.096;14.470;2023-08-12T09:58:18;25.40;56.36
67868;SHT31;54672;46.096;14.470;2023-08-12T10:00:45;25.25;54.84
67868;SHT31;54672;46.096;14.470;2023-08-12T10:03:11;25.25;53.73
67868;SHT31;54672;46.096;14.470;2023-08-12T10:05:39;25.33;52.89
67868;SHT31;54672;46.096;14.470;2023-08-12T10:08:07;25.39;54.22
67868;SHT31;54672;46.096;14.470;2023-08-12T10:10:35;25.67;54.03
67868;SHT31;54672;46.096;14.470;2023-08-12T10:13:01;24.94;53.33
67868;SHT31;54672;46.096;14.470;2023-08-12T10:15:27;24.96;55.20
67868;SHT31;54672;46.096;14.470;2023-08-12T10:17:52;25.26;54.83
67868;SHT31;54672;46.096;14.470;2023-08-12T10:20:22;24.61;55.22
67868;SHT31;54672;46.096;14.470;2023-08-12T10:22:49;24.84;55.79
67868;SHT31;54672;46.096;14.470;2023-08-12T10:25:15;25.38;53.84
67868;SHT31;54672;46.096;14.470;2023-08-12T10:27:43;25.74;53.99
67868;SHT31;54672;46.096;14.470;2023-08-12T10:30:09;25.81;53.24
67868;SHT31;54672;46.096;14.470;2023-08-12T10:32:35;26.01;53.73
67868;SHT31;54672;46.096;14.470;2023-08-12T10:35:00;26.17;52.10
67868;SHT31;54672;46.096;14.470;2023-08-12T10:37:27;26.28;53.37
67868;SHT31;54672;46.096;14.470;2023-08-12T10:39:53;26.31;53.00
67868;SHT31;54672;46.096;14.470;2023-08-12T10:45:10;26.01;53.54
67868;SHT31;54672;46.096;14.470;2023-08-12T10:47:43;26.10;54.43
67868;SHT31;54672;46.096;14.470;2023-08-12T10:50:20;26.32;54.26
67868;SHT31;54672;46.096;14.470;2023-08-12T10:52:47;26.25;52.78
67868;SHT31;54672;46.096;14.470;2023-08-12T10:57:44;25.93;54.58
67868;SHT31;54672;46.096;14.470;2023-08-12T11:00:18;25.80;54.60
67868;SHT31;54672;46.096;14.470;2023-08-12T11:02:49;26.14;55.28
67868;SHT31;54672;46.096;14.470;2023-08-12T11:05:15;26.11;55.45
67868;SHT31;54672;46.096;14.470;2023-08-12T11:08:00;25.93;57.67
67868;SHT31;54672;46.096;14.470;2023-08-12T11:10:31;26.10;56.32
67868;SHT31;54672;46.096;14.470;2023-08-12T11:12:57;26.38;56.44
67868;SHT31;54672;46.096;14.470;2023-08-12T11:15:36;26.35;56.22
67868;SHT31;54672;46.096;14.470;2023-08-12T11:18:07;26.45;57.03
67868;SHT31;54672;46.096;14.470;2023-08-12T11:20:33;26.45;57.78
67868;SHT31;54672;46.096;14.470;2023-08-12T11:23:00;26.56;55.79
67868;SHT31;54672;46.096;14.470;2023-08-12T11:25:28;26.55;57.13
67868;SHT31;54672;46.096;14.470;2023-08-12T11:27:54;26.72;58.07
67868;SHT31;54672;46.096;14.470;2023-08-12T11:30:21;26.62;57.15
67868;SHT31;54672;46.096;14.470;2023-08-12T11:32:49;26.60;56.78
67868;SHT31;54672;46.096;14.470;2023-08-12T11:35:16;26.49;57.31
67868;SHT31;54672;46.096;14.470;2023-08-12T11:37:46;26.14;58.39
67868;SHT31;54672;46.096;14.470;2023-08-12T11:40:12;26.52;57.28
67868;SHT31;54672;46.096;14.470;2023-08-12T11:42:41;26.72;57.06
67868;SHT31;54672;46.096;14.470;2023-08-12T11:45:08;26.92;56.62
67868;SHT31;54672;46.096;14.470;2023-08-12T11:47:38;26.87;55.45
67868;SHT31;54672;46.096;14.470;2023-08-12T11:50:08;26.95;55.70
67868;SHT31;54672;46.096;14.470;2023-08-12T11:52:35;27.09;54.67
67868;SHT31;54672;46.096;14.470;2023-08-12T11:55:01;27.23;54.91
67868;SHT31;54672;46.096;14.470;2023-08-12T11:57:27;27.16;54.95
67868;SHT31;54672;46.096;14.470;2023-08-12T11:59:58;27.16;55.85
67868;SHT31;54672;46.096;14.470;2023-08-12T12:02:25;27.06;55.48
67868;SHT31;54672;46.096;14.470;2023-08-12T12:04:51;26.97;57.00
67868;SHT31;54672;46.096;14.470;2023-08-12T12:07:21;27.13;56.44
67868;SHT31;54672;46.096;14.470;2023-08-12T12:09:51;27.22;56.28
67868;SHT31;54672;46.096;14.470;2023-08-12T12:12:17;27.38;56.56
67868;SHT31;54672;46.096;14.470;2023-08-12T12:14:43;27.38;56.24
67868;SHT31;54672;46.096;14.470;2023-08-12T12:17:08;27.48;56.50
67868;SHT31;54672;46.096;14.470;2023-08-12T12:19:35;27.44;55.04
67868;SHT31;54672;46.096;14.470;2023-08-12T12:22:03;27.31;56.30
67868;SHT31;54672;46.096;14.470;2023-08-12T12:24:30;27.31;56.36
67868;SHT31;54672;46.096;14.470;2023-08-12T12:26:56;27.31;56.38
67868;SHT31;54672;46.096;14.470;2023-08-12T12:29:22;27.51;55.80
67868;SHT31;54672;46.096;14.470;2023-08-12T12:31:48;27.57;55.26
67868;SHT31;54672;46.096;14.470;2023-08-12T12:34:13;27.64;55.82
67868;SHT31;54672;46.096;14.470;2023-08-12T12:36:40;27.54;56.99
67868;SHT31;54672;46.096;14.470;2023-08-12T12:39:06;27.40;57.13
67868;SHT31;54672;46.096;14.470;2023-08-12T12:41:32;27.31;56.72
67868;SHT31;54672;46.096;14.470;2023-08-12T12:44:00;27.44;56.33
67868;SHT31;54672;46.096;14.470;2023-08-12T12:46:26;27.53;54.77
67868;SHT31;54672;46.096;14.470;2023-08-12T12:48:52;27.26;55.38
67868;SHT31;54672;46.096;14.470;2023-08-12T12:51:17;26.86;56.71
67868;SHT31;54672;46.096;14.470;2023-08-12T12:53:43;27.02;58.11
67868;SHT31;54672;46.096;14.470;2023-08-12T12:56:08;27.46;56.18
67868;SHT31;54672;46.096;14.470;2023-08-12T12:58:34;27.58;54.77
67868;SHT31;54672;46.096;14.470;2023-08-12T13:01:00;27.68;56.07
67868;SHT31;54672;46.096;14.470;2023-08-12T13:03:26;27.72;55.23
67868;SHT31;54672;46.096;14.470;2023-08-12T13:05:51;27.89;55.19
67868;SHT31;54672;46.096;14.470;2023-08-12T13:08:17;27.96;54.17
67868;SHT31;54672;46.096;14.470;2023-08-12T13:10:42;27.59;55.41
67868;SHT31;54672;46.096;14.470;2023-08-12T13:13:08;27.50;54.98
67868;SHT31;54672;46.096;14.470;2023-08-12T13:15:34;27.47;55.41
67868;SHT31;54672;46.096;14.470;2023-08-12T13:17:59;27.75;55.41
67868;SHT31;54672;46.096;14.470;2023-08-12T13:20:25;27.72;55.05
67868;SHT31;54672;46.096;14.470;2023-08-12T13:22:50;27.85;54.08
67868;SHT31;54672;46.096;14.470;2023-08-12T13:25:16;27.58;55.49
67868;SHT31;54672;46.096;14.470;2023-08-12T13:27:42;27.36;55.68
67868;SHT31;54672;46.096;14.470;2023-08-12T13:30:08;27.72;55.14
67868;SHT31;54672;46.096;14.470;2023-08-12T13:32:34;27.96;55.74
67868;SHT31;54672;46.096;14.470;2023-08-12T13:34:59;27.88;54.94
67868;SHT31;54672;46.096;14.470;2023-08-12T13:37:25;27.78;56.15
67868;SHT31;54672;46.096;14.470;2023-08-12T13:39:50;27.98;54.51
67868;SHT31;54672;46.096;14.470;2023-08-12T13:42:15;27.92;55.49
67868;SHT31;54672;46.096;14.470;2023-08-12T13:44:41;27.95;55.33
67868;SHT31;54672;46.096;14.470;2023-08-12T13:47:06;27.95;54.58
67868;SHT31;54672;46.096;14.470;2023-08-12T13:49:32;27.87;55.51
67868;SHT31;54672;46.096;14.470;2023-08-12T13:51:57;27.85;55.30
67868;SHT31;54672;46.096;14.470;2023-08-12T13:54:24;27.81;54.45
67868;SHT31;54672;46.096;14.470;2023-08-12T13:56:50;27.98;54.22
67868;SHT31;54672;46.096;14.470;2023-08-12T13:59:15;28.08;53.42
67868;SHT31;54672;46.096;14.470;2023-08-12T14:01:41;28.09;53.28
67868;SHT31;54672;46.096;14.470;2023-08-12T14:04:06;28.18;53.12
67868;SHT31;54672;46.096;14.470;2023-08-12T14:06:31;28.16;53.07
67868;SHT31;54672;46.096;14.470;2023-08-12T14:08:57;28.15;53.69
67868;SHT31;54672;46.096;14.470;2023-08-12T14:11:22;28.06;53.42
67868;SHT31;54672;46.096;14.470;2023-08-12T14:13:48;27.96;53.80
67868;SHT31;54672;46.096;14.470;2023-08-12T14:16:13;28.01;54.24
67868;SHT31;54672;46.096;14.470;2023-08-12T14:18:39;27.88;55.25
67868;SHT31;54672;46.096;14.470;2023-08-12T14:21:04;27.80;55.23
67868;SHT31;54672;46.096;14.470;2023-08-12T14:23:30;27.75;55.07
67868;SHT31;54672;46.096;14.470;2023-08-12T14:25:55;27.74;55.21
67868;SHT31;54672;46.096;14.470;2023-08-12T14:28:20;27.78;54.74
67868;SHT31;54672;46.096;14.470;2023-08-12T14:30:46;27.92;54.95
67868;SHT31;54672;46.096;14.470;2023-08-12T14:33:11;27.96;54.23
67868;SHT31;54672;46.096;14.470;2023-08-12T14:35:37;27.99;54.20
67868;SHT31;54672;46.096;14.470;2023-08-12T14:38:02;27.91;53.66
67868;SHT31;54672;46.096;14.470;2023-08-12T14:40:28;27.92;54.09
67868;SHT31;54672;46.096;14.470;2023-08-12T14:42:54;27.96;53.96
67868;SHT31;54672;46.096;14.470;2023-08-12T14:45:19;28.04;54.30
67868;SHT31;54672;46.096;14.470;2023-08-12T14:47:45;28.02;54.02
67868;SHT31;54672;46.096;14.470;2023-08-12T14:50:11;28.02;53.04
67868;SHT31;54672;46.096;14.470;2023-08-12T14:52:36;27.96;54.69
67868;SHT31;54672;46.096;14.470;2023-08-12T14:55:02;27.98;54.04
67868;SHT31;54672;46.096;14.470;2023-08-12T14:57:27;27.98;54.13
67868;SHT31;54672;46.096;14.470;2023-08-12T14:59:53;28.08;53.37
67868;SHT31;54672;46.096;14.470;2023-08-12T15:02:21;28.18;53.98
67868;SHT31;54672;46.096;14.470;2023-08-12T15:04:49;27.95;53.73
67868;SHT31;54672;46.096;14.470;2023-08-12T15:07:15;28.05;52.81
67868;SHT31;54672;46.096;14.470;2023-08-12T15:09:42;28.01;53.43
67868;SHT31;54672;46.096;14.470;2023-08-12T15:12:08;27.96;53.70
67868;SHT31;54672;46.096;14.470;2023-08-12T15:14:33;27.91;53.18